Iryda (cyprus) — P3PA8 — position and weather

sailwx.info

Track history (hours):
 
Tides and Currents Weather Stations Pressure Air Temp Water Temp Dewpoint Dewpoint Depression Visibility Wind Speed Wind Dir Waves Ship Positions

Iryda (cyprus)

Last reported at 2018-Apr-16 12:47 UTC. Time now 2018-Apr-19 17:40 UTC.
Position N 09°32' W 079°50'.

Length 200 m; beam 24 m.

Type: Cargo ship. MMSI: 212891000.

Date/timePositionNaut miles runAvg speedWind from/ knotsBaromVisibWave heightAir tempDewpointWater temp
2018-Apr-16 12:47N 09°32' W 079°50'412.5
2018-Apr-16 12:30N 09°29' W 079°52'510.8
2018-Apr-16 12:00N 09°24' W 079°55'4 8.5
2018-Apr-16 11:30N 09°20' W 079°55'3 6.6
2018-Apr-16 11:00N 09°17' W 079°55'0 0.0
2018-Apr-16 10:30N 09°17' W 079°55'0 0.0
2018-Apr-16 10:00N 09°17' W 079°55'0 0.4
2018-Apr-16 09:29N 09°17' W 079°55'0 0.7
2018-Apr-16 09:00N 09°16' W 079°55'0 0.4
2018-Apr-16 08:30N 09°16' W 079°55'2 3.3
2018-Apr-16 08:00N 09°14' W 079°55'4 7.6
2018-Apr-16 07:30N 09°11' W 079°53'  
Track history (hours):
 
Tides and Currents Weather Stations Pressure Air Temp Water Temp Dewpoint Dewpoint Depression Visibility Wind Speed Wind Dir Waves Ship Positions

Iryda (cyprus)

Last reported at 2018-Apr-16 12:47 UTC. Time now 2018-Apr-19 17:40 UTC.
Position N 09°32' W 079°50'.

Length 200 m; beam 24 m.

Type: Cargo ship. MMSI: 212891000.

Date/timePositionNaut miles runAvg speedWind from/ knotsBaromVisibWave heightAir tempDewpointWater temp
2018-Apr-16 12:47N 09°32' W 079°50'412.5
2018-Apr-16 12:30N 09°29' W 079°52'510.8
2018-Apr-16 12:00N 09°24' W 079°55'4 8.5
2018-Apr-16 11:30N 09°20' W 079°55'3 6.6
2018-Apr-16 11:00N 09°17' W 079°55'0 0.0
2018-Apr-16 10:30N 09°17' W 079°55'0 0.0
2018-Apr-16 10:00N 09°17' W 079°55'0 0.4
2018-Apr-16 09:29N 09°17' W 079°55'0 0.7
2018-Apr-16 09:00N 09°16' W 079°55'0 0.4
2018-Apr-16 08:30N 09°16' W 079°55'2 3.3
2018-Apr-16 08:00N 09°14' W 079°55'4 7.6
2018-Apr-16 07:30N 09°11' W 079°53'  

Dump ship's entire track history